sensor_id;sensor_type;location;lat;lon;timestamp;pressure;altitude;pressure_sealevel;temperature;humidity
10700;BME280;5401;41.986;21.452;2024-01-11T00:01:45;99549.81;;;2.52;65.96
10700;BME280;5401;41.986;21.452;2024-01-11T00:04:13;99570.13;;;2.61;65.64
10700;BME280;5401;41.986;21.452;2024-01-11T00:06:42;99535.25;;;2.38;66.26
10700;BME280;5401;41.986;21.452;2024-01-11T00:09:10;99559.69;;;2.50;66.18
10700;BME280;5401;41.986;21.452;2024-01-11T00:11:37;99468.00;;;2.03;66.25
10700;BME280;5401;41.986;21.452;2024-01-11T00:14:05;99455.72;;;1.92;65.42
10700;BME280;5401;41.986;21.452;2024-01-11T00:16:34;99546.84;;;2.46;66.22
10700;BME280;5401;41.986;21.452;2024-01-11T00:19:01;99532.50;;;2.39;65.77
10700;BME280;5401;41.986;21.452;2024-01-11T00:21:29;99554.09;;;2.53;65.42
10700;BME280;5401;41.986;21.452;2024-01-11T00:23:56;99449.06;;;1.98;66.12
10700;BME280;5401;41.986;21.452;2024-01-11T00:26:24;99549.09;;;2.50;65.41
10700;BME280;5401;41.986;21.452;2024-01-11T00:28:51;99562.88;;;2.54;65.34
10700;BME280;5401;41.986;21.452;2024-01-11T00:31:19;99528.16;;;2.38;65.31
10700;BME280;5401;41.986;21.452;2024-01-11T00:33:47;99548.78;;;2.44;66.12
10700;BME280;5401;41.986;21.452;2024-01-11T00:36:17;99550.59;;;2.44;65.30
10700;BME280;5401;41.986;21.452;2024-01-11T00:38:46;99555.88;;;2.44;65.66
10700;BME280;5401;41.986;21.452;2024-01-11T00:41:13;99543.06;;;2.39;65.38
10700;BME280;5401;41.986;21.452;2024-01-11T00:43:41;99540.56;;;2.38;65.40
10700;BME280;5401;41.986;21.452;2024-01-11T00:46:08;99542.38;;;2.37;65.39
10700;BME280;5401;41.986;21.452;2024-01-11T00:48:36;99537.22;;;2.36;65.83
10700;BME280;5401;41.986;21.452;2024-01-11T00:51:05;99546.38;;;2.32;66.07
10700;BME280;5401;41.986;21.452;2024-01-11T00:53:33;99512.22;;;2.10;65.75
10700;BME280;5401;41.986;21.452;2024-01-11T00:56:01;99545.66;;;2.30;66.30
10700;BME280;5401;41.986;21.452;2024-01-11T00:58:28;99544.72;;;2.31;66.16
10700;BME280;5401;41.986;21.452;2024-01-11T01:00:56;99540.66;;;2.27;65.45
10700;BME280;5401;41.986;21.452;2024-01-11T01:03:23;99509.59;;;2.10;66.01
10700;BME280;5401;41.986;21.452;2024-01-11T01:05:51;99531.31;;;2.23;65.80
10700;BME280;5401;41.986;21.452;2024-01-11T01:08:19;99538.84;;;2.27;65.98
10700;BME280;5401;41.986;21.452;2024-01-11T01:10:47;99537.19;;;2.26;65.30
10700;BME280;5401;41.986;21.452;2024-01-11T01:13:14;99512.84;;;2.23;65.21
10700;BME280;5401;41.986;21.452;2024-01-11T01:15:42;99529.69;;;2.31;65.94
10700;BME280;5401;41.986;21.452;2024-01-11T01:18:09;99513.78;;;2.22;65.34
10700;BME280;5401;41.986;21.452;2024-01-11T01:20:37;99533.72;;;2.35;65.95
10700;BME280;5401;41.986;21.452;2024-01-11T01:23:04;99514.66;;;2.32;65.98
10700;BME280;5401;41.986;21.452;2024-01-11T01:25:33;99507.97;;;2.28;65.05
10700;BME280;5401;41.986;21.452;2024-01-11T01:28:01;99498.38;;;2.27;65.62
10700;BME280;5401;41.986;21.452;2024-01-11T01:30:28;99504.91;;;2.32;65.93
10700;BME280;5401;41.986;21.452;2024-01-11T01:32:55;99484.72;;;2.22;65.74
10700;BME280;5401;41.986;21.452;2024-01-11T01:35:23;99479.59;;;2.20;65.51
10700;BME280;5401;41.986;21.452;2024-01-11T01:37:50;99514.97;;;2.38;65.14
10700;BME280;5401;41.986;21.452;2024-01-11T01:40:18;99514.25;;;2.36;65.86
10700;BME280;5401;41.986;21.452;2024-01-11T01:42:48;99507.44;;;2.34;64.96
10700;BME280;5401;41.986;21.452;2024-01-11T01:45:16;99508.97;;;2.36;65.88
10700;BME280;5401;41.986;21.452;2024-01-11T01:47:44;99512.19;;;2.40;64.98
10700;BME280;5401;41.986;21.452;2024-01-11T01:50:12;99505.25;;;2.39;65.39
10700;BME280;5401;41.986;21.452;2024-01-11T01:52:41;99496.03;;;2.33;65.81
10700;BME280;5401;41.986;21.452;2024-01-11T01:55:10;99479.72;;;2.19;65.61
10700;BME280;5401;41.986;21.452;2024-01-11T01:57:40;99488.53;;;2.29;65.11
10700;BME280;5401;41.986;21.452;2024-01-11T02:00:10;99492.56;;;2.33;65.58
10700;BME280;5401;41.986;21.452;2024-01-11T02:02:39;99483.25;;;2.29;65.49
10700;BME280;5401;41.986;21.452;2024-01-11T02:05:08;99475.19;;;2.30;66.13
10700;BME280;5401;41.986;21.452;2024-01-11T02:07:37;99481.72;;;2.36;65.82
10700;BME280;5401;41.986;21.452;2024-01-11T02:10:07;99473.50;;;2.29;65.70
10700;BME280;5401;41.986;21.452;2024-01-11T02:12:35;99453.25;;;2.00;66.01
10700;BME280;5401;41.986;21.452;2024-01-11T02:15:04;99480.84;;;2.26;65.69
10700;BME280;5401;41.986;21.452;2024-01-11T02:17:34;99476.44;;;2.26;65.35
10700;BME280;5401;41.986;21.452;2024-01-11T02:20:01;99475.84;;;2.23;65.86
10700;BME280;5401;41.986;21.452;2024-01-11T02:22:32;99481.13;;;2.23;65.97
10700;BME280;5401;41.986;21.452;2024-01-11T02:25:03;99472.38;;;2.22;65.87
10700;BME280;5401;41.986;21.452;2024-01-11T02:27:31;99416.38;;;1.89;65.79
10700;BME280;5401;41.986;21.452;2024-01-11T02:30:12;99474.34;;;2.30;66.37
10700;BME280;5401;41.986;21.452;2024-01-11T02:32:39;99471.69;;;2.30;65.82
10700;BME280;5401;41.986;21.452;2024-01-11T02:35:07;99465.44;;;2.31;66.51
10700;BME280;5401;41.986;21.452;2024-01-11T02:37:36;99478.53;;;2.42;65.85
10700;BME280;5401;41.986;21.452;2024-01-11T02:40:08;99459.88;;;2.34;65.92
10700;BME280;5401;41.986;21.452;2024-01-11T02:42:36;99441.63;;;2.21;66.39
10700;BME280;5401;41.986;21.452;2024-01-11T02:45:04;99464.03;;;2.27;65.84
10700;BME280;5401;41.986;21.452;2024-01-11T02:47:32;99439.81;;;2.13;65.64
10700;BME280;5401;41.986;21.452;2024-01-11T02:49:59;99458.06;;;2.25;65.89
10700;BME280;5401;41.986;21.452;2024-01-11T02:52:27;99463.75;;;2.30;66.29
10700;BME280;5401;41.986;21.452;2024-01-11T02:54:54;99459.47;;;2.29;66.15
10700;BME280;5401;41.986;21.452;2024-01-11T02:57:23;99462.81;;;2.31;66.38
10700;BME280;5401;41.986;21.452;2024-01-11T02:59:51;99463.22;;;2.26;66.07
10700;BME280;5401;41.986;21.452;2024-01-11T03:02:18;99474.63;;;2.27;65.56
10700;BME280;5401;41.986;21.452;2024-01-11T03:04:46;99469.75;;;2.22;66.53
10700;BME280;5401;41.986;21.452;2024-01-11T03:07:13;99457.94;;;2.26;65.65
10700;BME280;5401;41.986;21.452;2024-01-11T03:12:48;99451.09;;;2.24;66.49
10700;BME280;5401;41.986;21.452;2024-01-11T03:15:16;99445.09;;;2.22;66.43
10700;BME280;5401;41.986;21.452;2024-01-11T03:17:43;99456.81;;;2.29;65.81
10700;BME280;5401;41.986;21.452;2024-01-11T03:20:11;99424.22;;;2.10;65.93
10700;BME280;5401;41.986;21.452;2024-01-11T03:22:45;99461.28;;;2.28;66.07
10700;BME280;5401;41.986;21.452;2024-01-11T03:25:12;99443.44;;;2.21;66.53
10700;BME280;5401;41.986;21.452;2024-01-11T03:27:40;99457.59;;;2.20;66.65
10700;BME280;5401;41.986;21.452;2024-01-11T03:30:09;99447.31;;;2.17;66.10
10700;BME280;5401;41.986;21.452;2024-01-11T03:32:37;99440.75;;;2.12;66.47
10700;BME280;5401;41.986;21.452;2024-01-11T03:35:05;99454.97;;;2.20;65.78
10700;BME280;5401;41.986;21.452;2024-01-11T03:37:33;99448.16;;;2.17;66.72
10700;BME280;5401;41.986;21.452;2024-01-11T03:40:00;99461.81;;;2.22;65.71
10700;BME280;5401;41.986;21.452;2024-01-11T03:42:28;99454.97;;;2.20;65.67
10700;BME280;5401;41.986;21.452;2024-01-11T03:44:56;99382.41;;;1.76;66.22
10700;BME280;5401;41.986;21.452;2024-01-11T03:47:24;99456.22;;;2.16;66.14
10700;BME280;5401;41.986;21.452;2024-01-11T03:49:52;99439.53;;;2.06;66.09
10700;BME280;5401;41.986;21.452;2024-01-11T03:52:19;99448.84;;;2.10;65.59
10700;BME280;5401;41.986;21.452;2024-01-11T03:54:47;99439.81;;;2.13;65.88
10700;BME280;5401;41.986;21.452;2024-01-11T03:57:14;99433.53;;;2.04;65.76
10700;BME280;5401;41.986;21.452;2024-01-11T03:59:42;99431.59;;;2.06;65.89
10700;BME280;5401;41.986;21.452;2024-01-11T04:02:11;99415.75;;;2.06;66.65
10700;BME280;5401;41.986;21.452;2024-01-11T04:04:40;99373.41;;;1.78;65.82
10700;BME280;5401;41.986;21.452;2024-01-11T04:07:08;99416.75;;;2.14;66.49
10700;BME280;5401;41.986;21.452;2024-01-11T04:09:37;99416.03;;;2.13;65.63
10700;BME280;5401;41.986;21.452;2024-01-11T04:12:05;99412.41;;;2.13;66.43
10700;BME280;5401;41.986;21.452;2024-01-11T04:14:33;99409.22;;;2.10;65.79
10700;BME280;5401;41.986;21.452;2024-01-11T04:17:00;99408.94;;;2.13;65.72
10700;BME280;5401;41.986;21.452;2024-01-11T04:19:28;99411.47;;;2.14;66.54
10700;BME280;5401;41.986;21.452;2024-01-11T04:22:05;99412.41;;;2.13;66.52
10700;BME280;5401;41.986;21.452;2024-01-11T04:24:33;99404.09;;;2.18;66.26
10700;BME280;5401;41.986;21.452;2024-01-11T04:27:00;99399.50;;;2.20;66.19
10700;BME280;5401;41.986;21.452;2024-01-11T04:29:28;99402.00;;;2.21;65.77
10700;BME280;5401;41.986;21.452;2024-01-11T04:31:56;99409.09;;;2.21;65.48
10700;BME280;5401;41.986;21.452;2024-01-11T04:34:22;99412.00;;;2.18;65.74
10700;BME280;5401;41.986;21.452;2024-01-11T04:36:49;99398.38;;;2.13;65.61
10700;BME280;5401;41.986;21.452;2024-01-11T04:39:18;99404.91;;;2.09;65.53
10700;BME280;5401;41.986;21.452;2024-01-11T04:41:46;99411.44;;;2.05;65.54
10700;BME280;5401;41.986;21.452;2024-01-11T04:44:14;99406.69;;;1.99;65.57
10700;BME280;5401;41.986;21.452;2024-01-11T04:46:41;99413.19;;;1.95;65.93
10700;BME280;5401;41.986;21.452;2024-01-11T04:49:08;99409.84;;;1.93;65.95
10700;BME280;5401;41.986;21.452;2024-01-11T04:51:36;99406.09;;;1.86;66.57
10700;BME280;5401;41.986;21.452;2024-01-11T04:54:03;99413.31;;;1.94;66.60
10700;BME280;5401;41.986;21.452;2024-01-11T04:56:32;99411.53;;;1.94;66.56
10700;BME280;5401;41.986;21.452;2024-01-11T04:59:00;99414.19;;;2.04;66.25
10700;BME280;5401;41.986;21.452;2024-01-11T05:01:27;99348.63;;;1.70;65.95
10700;BME280;5401;41.986;21.452;2024-01-11T05:03:55;99406.59;;;2.10;66.01
10700;BME280;5401;41.986;21.452;2024-01-11T05:06:22;99418.81;;;2.11;66.91
10700;BME280;5401;41.986;21.452;2024-01-11T05:08:51;99408.53;;;2.08;66.27
10700;BME280;5401;41.986;21.452;2024-01-11T05:11:19;99398.09;;;2.07;66.37
10700;BME280;5401;41.986;21.452;2024-01-11T05:13:49;99407.13;;;2.13;66.29
10700;BME280;5401;41.986;21.452;2024-01-11T05:16:18;99401.97;;;2.12;66.83
10700;BME280;5401;41.986;21.452;2024-01-11T05:18:46;99399.50;;;2.11;66.43
10700;BME280;5401;41.986;21.452;2024-01-11T05:21:14;99397.84;;;2.19;66.53
10700;BME280;5401;41.986;21.452;2024-01-11T05:23:41;99397.44;;;2.23;66.47
10700;BME280;5401;41.986;21.452;2024-01-11T05:26:09;99391.72;;;2.18;66.94
10700;BME280;5401;41.986;21.452;2024-01-11T05:28:36;99397.03;;;2.28;66.24
10700;BME280;5401;41.986;21.452;2024-01-11T05:31:08;99405.81;;;2.28;66.37
10700;BME280;5401;41.986;21.452;2024-01-11T05:33:36;99387.44;;;2.27;66.79
10700;BME280;5401;41.986;21.452;2024-01-11T05:36:04;99389.78;;;2.30;66.88
10700;BME280;5401;41.986;21.452;2024-01-11T05:38:32;99388.84;;;2.31;66.90
10700;BME280;5401;41.986;21.452;2024-01-11T05:40:59;99382.00;;;2.19;66.32
10700;BME280;5401;41.986;21.452;2024-01-11T05:43:44;99387.72;;;2.33;66.47
10700;BME280;5401;41.986;21.452;2024-01-11T05:46:13;99397.03;;;2.37;66.36
10700;BME280;5401;41.986;21.452;2024-01-11T05:48:41;99389.13;;;2.37;66.51
10700;BME280;5401;41.986;21.452;2024-01-11T05:51:09;99337.34;;;2.07;66.93
10700;BME280;5401;41.986;21.452;2024-01-11T05:53:41;99372.28;;;2.29;66.19
10700;BME280;5401;41.986;21.452;2024-01-11T05:56:09;99384.66;;;2.38;66.94
10700;BME280;5401;41.986;21.452;2024-01-11T05:58:37;99390.06;;;2.36;65.93
10700;BME280;5401;41.986;21.452;2024-01-11T06:01:04;99351.38;;;2.07;65.94
10700;BME280;5401;41.986;21.452;2024-01-11T06:03:33;99391.47;;;2.31;66.37
10700;BME280;5401;41.986;21.452;2024-01-11T06:06:01;99385.50;;;2.29;66.88
10700;BME280;5401;41.986;21.452;2024-01-11T06:08:29;99375.59;;;2.21;66.98
10700;BME280;5401;41.986;21.452;2024-01-11T06:10:57;99385.38;;;2.30;66.72
10700;BME280;5401;41.986;21.452;2024-01-11T06:13:24;99386.44;;;2.28;66.35
10700;BME280;5401;41.986;21.452;2024-01-11T06:15:52;99378.00;;;2.24;67.11
10700;BME280;5401;41.986;21.452;2024-01-11T06:18:19;99381.44;;;2.25;66.76
10700;BME280;5401;41.986;21.452;2024-01-11T06:20:47;99388.97;;;2.29;66.12
10700;BME280;5401;41.986;21.452;2024-01-11T06:23:15;99381.03;;;2.29;66.40
10700;BME280;5401;41.986;21.452;2024-01-11T06:25:42;99384.50;;;2.30;66.86
10700;BME280;5401;41.986;21.452;2024-01-11T06:28:12;99384.50;;;2.30;66.53
10700;BME280;5401;41.986;21.452;2024-01-11T06:30:39;99379.38;;;2.28;66.18
10700;BME280;5401;41.986;21.452;2024-01-11T06:33:07;99368.78;;;2.19;66.08
10700;BME280;5401;41.986;21.452;2024-01-11T06:35:34;99370.19;;;2.23;66.00
10700;BME280;5401;41.986;21.452;2024-01-11T06:38:03;99380.09;;;2.30;66.56
10700;BME280;5401;41.986;21.452;2024-01-11T06:40:31;99375.47;;;2.32;66.24
10700;BME280;5401;41.986;21.452;2024-01-11T06:42:58;99377.44;;;2.40;65.78
10700;BME280;5401;41.986;21.452;2024-01-11T06:45:25;99381.59;;;2.42;66.64
10700;BME280;5401;41.986;21.452;2024-01-11T06:47:53;99386.88;;;2.42;66.32
10700;BME280;5401;41.986;21.452;2024-01-11T06:50:20;99389.94;;;2.38;65.62
10700;BME280;5401;41.986;21.452;2024-01-11T06:52:48;99389.53;;;2.42;65.72
10700;BME280;5401;41.986;21.452;2024-01-11T06:55:17;99384.41;;;2.41;65.89
10700;BME280;5401;41.986;21.452;2024-01-11T06:57:46;99386.59;;;2.36;66.03
10700;BME280;5401;41.986;21.452;2024-01-11T07:00:14;99396.75;;;2.40;66.43
10700;BME280;5401;41.986;21.452;2024-01-11T07:02:42;99394.38;;;2.28;66.19
10700;BME280;5401;41.986;21.452;2024-01-11T07:05:09;99389.25;;;2.26;65.97
10700;BME280;5401;41.986;21.452;2024-01-11T07:07:38;99375.34;;;2.24;66.65
10700;BME280;5401;41.986;21.452;2024-01-11T07:10:06;99380.91;;;2.31;66.71
10700;BME280;5401;41.986;21.452;2024-01-11T07:12:36;99380.75;;;2.32;66.81
10700;BME280;5401;41.986;21.452;2024-01-11T07:15:05;99362.97;;;2.25;66.46
10700;BME280;5401;41.986;21.452;2024-01-11T07:17:34;99375.22;;;2.35;66.49
10700;BME280;5401;41.986;21.452;2024-01-11T07:20:01;99377.31;;;2.41;65.92
10700;BME280;5401;41.986;21.452;2024-01-11T07:22:30;99376.19;;;2.44;66.82
10700;BME280;5401;41.986;21.452;2024-01-11T07:24:57;99367.56;;;2.42;66.78
10700;BME280;5401;41.986;21.452;2024-01-11T07:27:25;99378.69;;;2.54;65.79
10700;BME280;5401;41.986;21.452;2024-01-11T07:29:54;99371.19;;;2.59;66.33
10700;BME280;5401;41.986;21.452;2024-01-11T07:32:21;99376.34;;;2.61;66.64
10700;BME280;5401;41.986;21.452;2024-01-11T07:34:49;99379.53;;;2.74;66.61
10700;BME280;5401;41.986;21.452;2024-01-11T07:37:16;99371.88;;;2.80;65.63
10700;BME280;5401;41.986;21.452;2024-01-11T07:39:44;99369.81;;;2.83;66.42
10700;BME280;5401;41.986;21.452;2024-01-11T07:42:13;99317.78;;;2.56;66.37
10700;BME280;5401;41.986;21.452;2024-01-11T07:44:42;99385.66;;;3.02;65.94
10700;BME280;5401;41.986;21.452;2024-01-11T07:47:11;99378.41;;;3.04;65.45
10700;BME280;5401;41.986;21.452;2024-01-11T07:49:38;99386.91;;;3.08;66.14
10700;BME280;5401;41.986;21.452;2024-01-11T07:52:06;99388.84;;;3.06;65.86
10700;BME280;5401;41.986;21.452;2024-01-11T07:54:33;99383.81;;;3.03;65.12
10700;BME280;5401;41.986;21.452;2024-01-11T07:57:01;99377.00;;;3.00;65.08
10700;BME280;5401;41.986;21.452;2024-01-11T07:59:32;99384.69;;;3.03;65.86
10700;BME280;5401;41.986;21.452;2024-01-11T08:02:02;99383.81;;;3.03;65.25
10700;BME280;5401;41.986;21.452;2024-01-11T08:04:31;99388.56;;;3.18;65.28
10700;BME280;5401;41.986;21.452;2024-01-11T08:06:58;99392.84;;;3.28;65.69
10700;BME280;5401;41.986;21.452;2024-01-11T08:09:26;99396.31;;;3.38;65.07
10700;BME280;5401;41.986;21.452;2024-01-11T08:11:53;99347.31;;;3.25;65.66
10700;BME280;5401;41.986;21.452;2024-01-11T08:14:21;99356.03;;;3.44;65.24
10700;BME280;5401;41.986;21.452;2024-01-11T08:16:50;99389.13;;;3.67;65.51
10700;BME280;5401;41.986;21.452;2024-01-11T08:19:19;99384.75;;;3.75;64.71
10700;BME280;5401;41.986;21.452;2024-01-11T08:21:48;99390.47;;;3.80;65.21
10700;BME280;5401;41.986;21.452;2024-01-11T08:24:16;99387.38;;;3.85;64.83
10700;BME280;5401;41.986;21.452;2024-01-11T08:26:44;99378.75;;;3.83;65.20
10700;BME280;5401;41.986;21.452;2024-01-11T08:29:13;99312.28;;;3.50;64.39
10700;BME280;5401;41.986;21.452;2024-01-11T08:31:40;99390.06;;;4.02;64.31
10700;BME280;5401;41.986;21.452;2024-01-11T08:34:09;99381.41;;;4.09;64.91
10700;BME280;5401;41.986;21.452;2024-01-11T08:36:37;99379.16;;;4.14;64.30
10700;BME280;5401;41.986;21.452;2024-01-11T08:39:06;99383.19;;;4.18;64.58
10700;BME280;5401;41.986;21.452;2024-01-11T08:41:35;99385.38;;;4.23;64.22
10700;BME280;5401;41.986;21.452;2024-01-11T08:44:04;99371.25;;;4.22;64.75
10700;BME280;5401;41.986;21.452;2024-01-11T08:46:32;99382.56;;;4.24;63.98
10700;BME280;5401;41.986;21.452;2024-01-11T08:49:00;99382.97;;;4.29;64.21
10700;BME280;5401;41.986;21.452;2024-01-11T08:51:29;99312.03;;;3.96;64.60
10700;BME280;5401;41.986;21.452;2024-01-11T08:53:57;99381.38;;;4.36;64.13
10700;BME280;5401;41.986;21.452;2024-01-11T08:56:26;99372.81;;;4.42;63.81
10700;BME280;5401;41.986;21.452;2024-01-11T08:58:54;99353.56;;;4.40;64.10
10700;BME280;5401;41.986;21.452;2024-01-11T09:01:21;99339.63;;;4.38;64.28
10700;BME280;5401;41.986;21.452;2024-01-11T09:03:50;99356.41;;;4.56;63.78
10700;BME280;5401;41.986;21.452;2024-01-11T09:06:18;99368.44;;;4.67;63.77
10700;BME280;5401;41.986;21.452;2024-01-11T09:08:46;99358.66;;;4.68;63.56
10700;BME280;5401;41.986;21.452;2024-01-11T09:11:15;99349.75;;;4.69;63.52
10700;BME280;5401;41.986;21.452;2024-01-11T09:13:44;99360.84;;;4.72;63.38
10700;BME280;5401;41.986;21.452;2024-01-11T09:16:14;99345.25;;;4.69;63.51
10700;BME280;5401;41.986;21.452;2024-01-11T09:18:43;99320.97;;;4.57;63.45
10700;BME280;5401;41.986;21.452;2024-01-11T09:21:11;99341.41;;;4.81;63.04
10700;BME280;5401;41.986;21.452;2024-01-11T09:23:39;99353.38;;;4.85;63.40
10700;BME280;5401;41.986;21.452;2024-01-11T09:26:06;99309.19;;;4.76;63.47
10700;BME280;5401;41.986;21.452;2024-01-11T09:28:34;99343.72;;;5.01;63.26
10700;BME280;5401;41.986;21.452;2024-01-11T09:31:03;99310.19;;;5.00;63.67
10700;BME280;5401;41.986;21.452;2024-01-11T09:33:31;99310.25;;;5.08;62.89
10700;BME280;5401;41.986;21.452;2024-01-11T09:35:58;99301.16;;;5.11;63.20
10700;BME280;5401;41.986;21.452;2024-01-11T09:38:26;99310.03;;;5.19;62.94
10700;BME280;5401;41.986;21.452;2024-01-11T09:41:03;99293.25;;;5.19;62.85
10700;BME280;5401;41.986;21.452;2024-01-11T09:43:33;99250.47;;;4.96;62.78
10700;BME280;5401;41.986;21.452;2024-01-11T09:46:05;99293.63;;;5.24;62.62
10700;BME280;5401;41.986;21.452;2024-01-11T09:48:34;99262.41;;;5.18;62.70
10700;BME280;5401;41.986;21.452;2024-01-11T09:51:03;99261.19;;;5.12;62.29
10700;BME280;5401;41.986;21.452;2024-01-11T09:53:32;99272.69;;;5.21;62.68
10700;BME280;5401;41.986;21.452;2024-01-11T09:56:00;99266.66;;;5.11;62.47
10700;BME280;5401;41.986;21.452;2024-01-11T09:58:29;99276.63;;;5.17;62.32
10700;BME280;5401;41.986;21.452;2024-01-11T10:00:57;99275.91;;;5.07;62.25
10700;BME280;5401;41.986;21.452;2024-01-11T10:03:27;99274.41;;;5.04;62.31
10700;BME280;5401;41.986;21.452;2024-01-11T10:05:56;99268.06;;;4.97;62.66
10700;BME280;5401;41.986;21.452;2024-01-11T10:08:25;99253.81;;;4.73;62.42
10700;BME280;5401;41.986;21.452;2024-01-11T10:10:53;99249.41;;;4.64;62.92
10700;BME280;5401;41.986;21.452;2024-01-11T10:13:26;99245.31;;;4.70;63.08
10700;BME280;5401;41.986;21.452;2024-01-11T10:16:05;99251.22;;;4.81;62.73
10700;BME280;5401;41.986;21.452;2024-01-11T10:18:35;99230.47;;;4.77;63.09
10700;BME280;5401;41.986;21.452;2024-01-11T10:21:03;99224.25;;;4.68;62.99
10700;BME280;5401;41.986;21.452;2024-01-11T10:23:33;99217.47;;;4.49;62.88
10700;BME280;5401;41.986;21.452;2024-01-11T10:26:01;99243.81;;;4.67;62.59
10700;BME280;5401;41.986;21.452;2024-01-11T10:28:28;99200.28;;;4.53;62.82
10700;BME280;5401;41.986;21.452;2024-01-11T10:30:56;99226.59;;;4.71;62.69
10700;BME280;5401;41.986;21.452;2024-01-11T10:33:24;99216.81;;;4.47;62.83
10700;BME280;5401;41.986;21.452;2024-01-11T10:35:53;99202.25;;;4.51;62.51
10700;BME280;5401;41.986;21.452;2024-01-11T10:38:22;99136.78;;;4.26;62.76
10700;BME280;5401;41.986;21.452;2024-01-11T10:40:53;99173.91;;;4.51;62.27
10700;BME280;5401;41.986;21.452;2024-01-11T10:43:22;99174.13;;;4.58;62.30
10700;BME280;5401;41.986;21.452;2024-01-11T10:45:51;99165.03;;;4.60;62.86
10700;BME280;5401;41.986;21.452;2024-01-11T10:48:21;99085.25;;;4.21;62.56
10700;BME280;5401;41.986;21.452;2024-01-11T10:50:54;99188.03;;;4.85;62.74
10700;BME280;5401;41.986;21.452;2024-01-11T10:53:41;99171.16;;;4.86;62.19
10700;BME280;5401;41.986;21.452;2024-01-11T10:56:12;99169.81;;;4.82;62.48
10700;BME280;5401;41.986;21.452;2024-01-11T10:58:40;99154.94;;;4.63;62.46
10700;BME280;5401;41.986;21.452;2024-01-11T11:01:08;99157.78;;;4.70;62.20
10700;BME280;5401;41.986;21.452;2024-01-11T11:03:37;99153.06;;;4.81;62.64
10700;BME280;5401;41.986;21.452;2024-01-11T11:06:06;99113.81;;;4.60;62.59
10700;BME280;5401;41.986;21.452;2024-01-11T11:08:34;99130.34;;;4.79;62.18
10700;BME280;5401;41.986;21.452;2024-01-11T11:11:04;99114.78;;;4.84;62.52
10700;BME280;5401;41.986;21.452;2024-01-11T11:13:32;99117.63;;;4.90;62.40
10700;BME280;5401;41.986;21.452;2024-01-11T11:16:01;99097.31;;;4.73;62.22
10700;BME280;5401;41.986;21.452;2024-01-11T11:18:30;99130.25;;;4.96;62.03
10700;BME280;5401;41.986;21.452;2024-01-11T11:20:59;99117.63;;;4.90;62.10
10700;BME280;5401;41.986;21.452;2024-01-11T11:23:28;99127.00;;;5.10;62.25
10700;BME280;5401;41.986;21.452;2024-01-11T11:25:57;99060.09;;;4.83;61.72
10700;BME280;5401;41.986;21.452;2024-01-11T11:28:26;99105.16;;;5.24;61.72
10700;BME280;5401;41.986;21.452;2024-01-11T11:30:53;99113.19;;;5.39;61.88
10700;BME280;5401;41.986;21.452;2024-01-11T11:33:24;99079.44;;;5.24;61.76
10700;BME280;5401;41.986;21.452;2024-01-11T11:35:52;99057.03;;;5.19;62.23
10700;BME280;5401;41.986;21.452;2024-01-11T11:38:21;99068.69;;;5.33;61.68
10700;BME280;5401;41.986;21.452;2024-01-11T11:40:52;99092.59;;;5.57;61.67
10700;BME280;5401;41.986;21.452;2024-01-11T11:43:20;99086.50;;;5.65;61.55
10700;BME280;5401;41.986;21.452;2024-01-11T11:45:49;99041.47;;;5.55;61.45
10700;BME280;5401;41.986;21.452;2024-01-11T11:48:50;99074.19;;;5.71;61.28
10700;BME280;5401;41.986;21.452;2024-01-11T11:51:22;99073.09;;;5.74;61.35
10700;BME280;5401;41.986;21.452;2024-01-11T11:53:51;99073.75;;;5.76;61.55
10700;BME280;5401;41.986;21.452;2024-01-11T11:56:22;98987.38;;;5.40;61.13
10700;BME280;5401;41.986;21.452;2024-01-11T11:58:50;99065.97;;;5.98;61.23
10700;BME280;5401;41.986;21.452;2024-01-11T12:01:19;99063.63;;;6.11;61.00
10700;BME280;5401;41.986;21.452;2024-01-11T12:03:47;99022.94;;;5.95;61.19
10700;BME280;5401;41.986;21.452;2024-01-11T12:06:17;99063.75;;;6.17;61.09
10700;BME280;5401;41.986;21.452;2024-01-11T12:08:45;98998.50;;;5.99;60.84
10700;BME280;5401;41.986;21.452;2024-01-11T12:11:13;99018.56;;;6.17;60.61
10700;BME280;5401;41.986;21.452;2024-01-11T12:13:43;99023.34;;;6.38;60.89
10700;BME280;5401;41.986;21.452;2024-01-11T12:16:11;99020.16;;;6.42;60.63
10700;BME280;5401;41.986;21.452;2024-01-11T12:18:39;99011.88;;;6.37;60.78
10700;BME280;5401;41.986;21.452;2024-01-11T12:21:07;98959.78;;;6.12;60.70
10700;BME280;5401;41.986;21.452;2024-01-11T12:23:36;99015.16;;;6.55;60.31
10700;BME280;5401;41.986;21.452;2024-01-11T12:26:06;99003.00;;;6.52;60.48
10700;BME280;5401;41.986;21.452;2024-01-11T12:28:39;98999.22;;;6.55;60.02
10700;BME280;5401;41.986;21.452;2024-01-11T12:31:09;99007.47;;;6.68;59.87
10700;BME280;5401;41.986;21.452;2024-01-11T12:33:37;98967.66;;;6.36;59.82
10700;BME280;5401;41.986;21.452;2024-01-11T12:36:06;99000.03;;;6.55;60.21
10700;BME280;5401;41.986;21.452;2024-01-11T12:38:37;99002.66;;;6.63;60.09
10700;BME280;5401;41.986;21.452;2024-01-11T12:41:06;98983.91;;;6.57;60.08
10700;BME280;5401;41.986;21.452;2024-01-11T12:43:34;98946.41;;;6.36;60.27
10700;BME280;5401;41.986;21.452;2024-01-11T12:46:02;98962.16;;;6.45;59.70
10700;BME280;5401;41.986;21.452;2024-01-11T12:48:31;98962.66;;;6.49;59.56
10700;BME280;5401;41.986;21.452;2024-01-11T12:50:59;98992.72;;;6.49;60.14
10700;BME280;5401;41.986;21.452;2024-01-11T12:53:26;98976.88;;;6.18;60.48
10700;BME280;5401;41.986;21.452;2024-01-11T12:56:03;98948.41;;;5.80;60.33
10700;BME280;5401;41.986;21.452;2024-01-11T12:58:34;98931.28;;;5.59;59.77
10700;BME280;5401;41.986;21.452;2024-01-11T13:01:02;98959.66;;;5.59;60.62
10700;BME280;5401;41.986;21.452;2024-01-11T13:03:31;98994.34;;;5.65;61.12
10700;BME280;5401;41.986;21.452;2024-01-11T13:05:58;98975.44;;;5.68;61.16
10700;BME280;5401;41.986;21.452;2024-01-11T13:08:26;98975.47;;;5.76;61.04
10700;BME280;5401;41.986;21.452;2024-01-11T13:10:54;98957.19;;;5.81;60.97
10700;BME280;5401;41.986;21.452;2024-01-11T13:13:22;98984.25;;;5.92;61.50
10700;BME280;5401;41.986;21.452;2024-01-11T13:15:50;98920.00;;;5.49;61.01
10700;BME280;5401;41.986;21.452;2024-01-11T13:18:18;98977.78;;;5.87;61.10
10700;BME280;5401;41.986;21.452;2024-01-11T13:20:47;98978.59;;;5.95;60.93